Time;durP1;ratioP1;P1;durP2;ratioP2;P2;SDS_P1;SDS_P2;PMS_P1;PMS_P2;Temp;Humidity;BMP_temperature;BMP_pressure;BME280_temperature;BME280_humidity;BME280_pressure;Samples;Min_cycle;Max_cycle;Signal;HPM_P1;HPM_P2
2022/11/22 00:00:51;;;;;;;3.95;1.52;;;;;;;7.72;79.89;98831.41;5051433;28;20453;-60
2022/11/22 00:03:17;;;;;;;5.00;2.20;;;;;;;7.72;79.96;98831.41;5052080;28;20044;-60
2022/11/22 00:05:42;;;;;;;7.15;2.60;;;;;;;7.75;80.40;98842.47;5051110;28;20494;-60
2022/11/22 00:08:08;;;;;;;6.07;2.30;;;;;;;7.73;79.47;98846.81;5049027;28;20101;-59
2022/11/22 00:10:33;;;;;;;7.97;2.25;;;;;;;7.75;80.24;98839.88;5058674;28;20074;-59
2022/11/22 00:12:59;;;;;;;3.17;2.03;;;;;;;7.76;79.98;98835.59;5052726;28;20060;-59
2022/11/22 00:15:24;;;;;;;10.35;2.47;;;;;;;7.75;80.23;98832.16;5048675;28;20037;-60
2022/11/22 00:17:50;;;;;;;5.75;2.53;;;;;;;7.75;80.40;98828.75;5045040;28;20055;-59
2022/11/22 00:20:16;;;;;;;5.40;2.47;;;;;;;7.74;80.43;98837.38;5053823;28;20133;-61
2022/11/22 00:22:42;;;;;;;5.63;2.05;;;;;;;7.74;80.45;98847.66;5057285;28;20037;-59
2022/11/22 00:25:08;;;;;;;7.13;2.63;;;;;;;7.73;80.85;98846.81;5054255;28;20039;-59
2022/11/22 00:27:33;;;;;;;7.22;2.50;;;;;;;7.74;80.62;98843.38;5052770;28;20551;-59
2022/11/22 00:29:59;;;;;;;7.53;1.98;;;;;;;7.74;80.39;98845.09;5055956;28;20028;-59
2022/11/22 00:32:24;;;;;;;4.93;2.40;;;;;;;7.74;80.98;98845.94;5053536;28;20051;-59
2022/11/22 00:34:50;;;;;;;6.20;2.40;;;;;;;7.73;80.73;98851.94;5056681;28;20049;-59
2022/11/22 00:37:15;;;;;;;4.65;2.22;;;;;;;7.68;81.73;98840.13;5048870;28;20049;-59
2022/11/22 00:39:40;;;;;;;3.88;2.03;;;;;;;7.62;82.73;98843.69;5051485;28;20805;-59
2022/11/22 00:42:06;;;;;;;8.30;2.30;;;;;;;7.56;82.91;98840.44;5047869;28;20151;-59
2022/11/22 00:44:31;;;;;;;5.93;2.05;;;;;;;7.53;83.23;98836.22;5054329;28;20032;-59
2022/11/22 00:46:57;;;;;;;5.15;1.98;;;;;;;7.49;84.08;98839.75;5040640;28;20032;-59
2022/11/22 00:49:22;;;;;;;8.02;2.00;;;;;;;7.49;83.80;98836.34;5056956;28;20036;-59
2022/11/22 00:51:48;;;;;;;4.70;1.95;;;;;;;7.48;84.08;98842.38;5055625;28;20041;-59
2022/11/22 00:54:13;;;;;;;5.80;2.97;;;;;;;7.48;83.90;98834.66;5056788;28;20861;-61
2022/11/22 00:56:38;;;;;;;5.47;2.30;;;;;;;7.47;84.00;98838.97;5052611;28;20131;-62
2022/11/22 00:59:04;;;;;;;5.25;2.40;;;;;;;7.46;83.95;98837.28;5052444;28;20047;-62
2022/11/22 01:01:29;;;;;;;5.57;2.70;;;;;;;7.43;84.32;98850.19;5050163;28;20552;-62
2022/11/22 01:03:54;;;;;;;7.55;2.22;;;;;;;7.40;84.44;98852.84;5053300;28;20040;-62
2022/11/22 01:06:20;;;;;;;4.28;2.05;;;;;;;7.38;85.05;98846.91;5053382;28;20669;-57
2022/11/22 01:08:45;;;;;;;3.53;1.63;;;;;;;7.35;84.70;98837.56;5048037;28;20040;-58
2022/11/22 01:11:11;;;;;;;6.57;1.85;;;;;;;7.31;84.92;98843.66;5054083;28;20099;-57
2022/11/22 01:13:37;;;;;;;4.88;1.63;;;;;;;7.27;84.71;98838.63;5042097;28;20044;-57
2022/11/22 01:16:07;;;;;;;6.03;1.80;;;;;;;7.21;85.19;98838.81;5037813;28;20037;-58
2022/11/22 01:18:33;;;;;;;2.35;1.70;;;;;;;7.13;84.97;98846.66;5050389;28;20041;-57
2022/11/22 01:20:58;;;;;;;4.75;2.00;;;;;;;7.07;84.78;98853.66;5039773;28;20140;-57
2022/11/22 01:23:24;;;;;;;6.10;2.10;;;;;;;7.03;85.59;98868.31;5039816;28;20039;-57
2022/11/22 01:25:49;;;;;;;6.75;1.75;;;;;;;7.03;86.05;98870.88;5036880;28;20037;-58
2022/11/22 01:28:16;;;;;;;4.43;1.90;;;;;;;7.02;86.24;98871.78;5036502;28;20041;-57
2022/11/22 01:30:42;;;;;;;5.30;2.00;;;;;;;7.03;86.17;98876.00;5028316;28;20036;-57
2022/11/22 01:33:08;;;;;;;5.07;1.90;;;;;;;7.04;86.31;98869.16;5038289;28;20025;-57
2022/11/22 01:35:33;;;;;;;4.68;1.58;;;;;;;7.02;86.06;98866.63;5037706;28;20530;-57
2022/11/22 01:37:58;;;;;;;5.72;1.73;;;;;;;7.03;86.13;98872.63;5036996;28;20041;-57
2022/11/22 01:40:24;;;;;;;5.68;1.73;;;;;;;6.98;86.17;98875.28;5035796;28;20075;-58
2022/11/22 01:42:55;;;;;;;6.07;1.60;;;;;;;6.93;86.84;98874.56;5037909;28;20063;-58
2022/11/22 01:45:29;;;;;;;3.47;1.83;;;;;;;6.91;86.73;98882.28;5037515;28;20048;-57
2022/11/22 01:48:16;;;;;;;6.07;1.90;;;;;;;6.86;86.75;98886.69;5057658;28;20500;-57
2022/11/22 01:50:45;;;;;;;4.72;1.70;;;;;;;6.88;87.09;98881.53;5059112;28;20042;-57
2022/11/22 01:53:19;;;;;;;4.80;1.63;;;;;;;6.85;86.90;98874.72;5058122;28;20046;-58
2022/11/22 01:55:46;;;;;;;3.25;1.40;;;;;;;6.83;87.09;98873.09;5048851;28;20037;-57
2022/11/22 01:58:14;;;;;;;4.45;1.25;;;;;;;6.77;87.22;98881.78;5060893;28;20851;-57
2022/11/22 02:00:39;;;;;;;3.28;1.40;;;;;;;6.71;87.22;98889.63;5047496;28;20041;-58
2022/11/22 02:03:09;;;;;;;3.15;1.42;;;;;;;6.64;87.86;98877.81;5056726;28;20535;-58
2022/11/22 02:05:35;;;;;;;3.70;1.50;;;;;;;6.59;87.65;98889.03;5057040;28;20039;-57
2022/11/22 02:08:10;;;;;;;4.53;1.45;;;;;;;6.49;87.85;98891.00;5058622;28;20036;-57
2022/11/22 02:10:42;;;;;;;4.60;1.40;;;;;;;6.43;88.04;98897.97;5047886;28;20033;-57
2022/11/22 02:13:09;;;;;;;5.90;1.70;;;;;;;6.38;88.42;98923.72;5057476;28;20063;-58
2022/11/22 02:15:34;;;;;;;5.45;1.58;;;;;;;6.34;88.24;98915.25;5057159;28;20641;-57
2022/11/22 02:18:00;;;;;;;5.00;1.65;;;;;;;6.31;88.84;98914.47;5057348;28;20098;-57
2022/11/22 02:20:25;;;;;;;3.35;1.35;;;;;;;6.28;88.67;98911.97;5056573;28;20115;-58
2022/11/22 02:23:06;;;;;;;4.80;2.10;;;;;;;6.25;89.13;98914.59;5050749;28;20647;-57
2022/11/22 02:25:40;;;;;;;2.97;2.08;;;;;;;6.21;88.91;98913.81;5045691;28;20033;-57
2022/11/22 02:28:07;;;;;;;4.70;2.50;;;;;;;6.16;89.42;98920.78;5053475;28;20048;-57
2022/11/22 02:30:32;;;;;;;2.50;1.50;;;;;;;6.14;89.32;98929.38;5054463;28;20040;-57
2022/11/22 02:32:58;;;;;;;4.30;1.70;;;;;;;6.08;89.08;98930.31;5054505;28;20036;-57
2022/11/22 02:35:26;;;;;;;9.25;2.65;;;;;;;6.03;89.35;98928.72;5056457;28;20719;-57
2022/11/22 02:37:58;;;;;;;5.65;2.05;;;;;;;5.99;89.39;98930.50;5051799;28;20048;-57
2022/11/22 02:40:26;;;;;;;6.55;1.85;;;;;;;5.92;89.55;98933.22;5049956;28;20094;-57
2022/11/22 02:42:59;;;;;;;3.75;1.73;;;;;;;5.84;89.67;98938.50;5057699;28;20050;-58
2022/11/22 02:45:25;;;;;;;2.17;1.23;;;;;;;5.77;89.50;98936.91;5050558;28;20041;-58
2022/11/22 02:47:50;;;;;;;2.60;1.50;;;;;;;5.75;90.09;98931.78;5050658;28;20067;-57
2022/11/22 02:50:15;;;;;;;3.25;1.50;;;;;;;5.71;89.63;98930.19;5057832;28;20047;-57
2022/11/22 02:52:41;;;;;;;9.32;2.20;;;;;;;5.65;89.86;98927.72;5054080;28;20036;-57
2022/11/22 02:55:07;;;;;;;4.65;1.90;;;;;;;5.59;90.10;98915.03;5052254;28;20063;-58
2022/11/22 02:57:32;;;;;;;5.15;1.85;;;;;;;5.55;90.45;98913.38;5053102;28;20117;-57
2022/11/22 02:59:57;;;;;;;3.35;1.58;;;;;;;5.50;90.84;98915.19;5058258;28;20033;-58
2022/11/22 03:02:23;;;;;;;4.32;1.52;;;;;;;5.43;90.93;98925.59;5038433;28;20043;-58
2022/11/22 03:04:48;;;;;;;3.53;1.60;;;;;;;5.37;90.51;98930.81;5048711;28;20056;-57
2022/11/22 03:07:15;;;;;;;3.15;1.48;;;;;;;5.32;91.13;98941.13;5057415;28;20041;-58
2022/11/22 03:09:41;;;;;;;4.50;1.40;;;;;;;5.27;90.72;98945.47;5036639;28;20063;-57
2022/11/22 03:12:06;;;;;;;6.07;2.08;;;;;;;5.24;91.42;98948.09;5033253;28;20482;-58
2022/11/22 03:14:31;;;;;;;5.65;1.70;;;;;;;5.23;90.95;98951.50;5033956;28;20242;-58
2022/11/22 03:16:57;;;;;;;2.90;1.60;;;;;;;5.19;91.06;98955.84;5028441;28;20508;-57
2022/11/22 03:19:22;;;;;;;3.67;2.03;;;;;;;5.15;91.80;98958.47;5036023;28;20056;-58
2022/11/22 03:21:48;;;;;;;4.75;1.83;;;;;;;5.09;91.67;98954.31;5033764;28;20038;-57
2022/11/22 03:24:14;;;;;;;3.67;1.80;;;;;;;5.04;91.14;98962.94;5043400;28;20108;-57
2022/11/22 03:26:40;;;;;;;3.92;2.83;;;;;;;5.00;91.31;98957.00;5042546;28;20029;-58
2022/11/22 03:29:05;;;;;;;8.63;3.17;;;;;;;5.05;91.41;98954.34;5041483;28;20053;-57
2022/11/22 03:31:30;;;;;;;8.35;2.55;;;;;;;5.14;92.27;98964.47;5027254;28;20701;-57
2022/11/22 03:33:56;;;;;;;7.68;2.22;;;;;;;5.38;92.54;98958.94;5044453;28;20040;-57
2022/11/22 03:36:22;;;;;;;5.30;2.17;;;;;;;5.48;92.57;98963.06;5035419;28;20052;-58
2022/11/22 03:38:47;;;;;;;5.78;2.17;;;;;;;5.56;92.41;98963.78;5031774;28;20748;-57
2022/11/22 03:41:12;;;;;;;7.45;3.42;;;;;;;5.63;92.42;98973.06;5034557;28;20112;-57
2022/11/22 03:43:38;;;;;;;13.07;3.67;;;;;;;5.64;91.88;98977.28;5038197;28;20041;-58
2022/11/22 03:46:04;;;;;;;14.23;5.72;;;;;;;5.71;91.69;98984.00;5039121;28;20079;-57
2022/11/22 03:48:29;;;;;;;13.75;6.35;;;;;;;5.78;92.09;98985.56;5032121;28;20033;-58
2022/11/22 03:51:05;;;;;;;20.98;6.60;;;;;;;5.78;91.93;98988.16;5033490;28;20105;-57
2022/11/22 03:53:32;;;;;;;9.35;3.08;;;;;;;5.88;91.55;99001.66;5032449;28;20033;-57
2022/11/22 03:55:57;;;;;;;13.93;5.20;;;;;;;5.90;90.60;99004.22;5029436;28;20505;-57
2022/11/22 03:58:23;;;;;;;17.65;5.97;;;;;;;5.91;90.75;98993.91;5029538;28;20037;-57
2022/11/22 04:00:48;;;;;;;17.67;6.53;;;;;;;5.92;90.21;98992.19;5029303;28;20037;-58
2022/11/22 04:03:13;;;;;;;25.35;9.25;;;;;;;5.93;89.56;98992.19;5034235;28;20045;-56
2022/11/22 04:05:39;;;;;;;20.33;6.53;;;;;;;5.91;89.52;98996.47;5029835;28;20548;-57
2022/11/22 04:08:04;;;;;;;15.73;5.72;;;;;;;5.89;89.35;98993.09;5047419;28;20032;-57
2022/11/22 04:10:29;;;;;;;14.05;4.55;;;;;;;5.87;89.19;99001.69;5036760;28;20041;-57
2022/11/22 04:12:58;;;;;;;15.52;4.57;;;;;;;5.81;89.31;99000.09;5037711;28;20131;-57
2022/11/22 04:15:25;;;;;;;11.20;2.40;;;;;;;5.74;89.16;99004.47;5024996;28;20041;-58
2022/11/22 04:17:50;;;;;;;8.23;2.42;;;;;;;5.65;89.54;99012.31;5038150;28;20569;-57
2022/11/22 04:23:09;;;;;;;7.93;2.22;;;;;;;5.52;89.45;99005.69;5034041;28;20098;-58
2022/11/22 04:25:37;;;;;;;13.32;2.47;;;;;;;5.43;89.97;99013.50;5035902;28;20089;-57
2022/11/22 04:28:04;;;;;;;6.22;1.73;;;;;;;5.33;89.64;99004.31;5035344;28;20211;-57
2022/11/22 04:33:15;;;;;;;6.13;1.90;;;;;;;5.17;90.15;99013.06;5029482;28;20468;-57
2022/11/22 04:35:41;;;;;;;7.07;1.70;;;;;;;5.09;89.73;99018.31;5028989;28;20080;-57
2022/11/22 04:38:07;;;;;;;7.60;2.17;;;;;;;5.04;89.86;99020.06;5033544;28;20041;-58
2022/11/22 04:40:33;;;;;;;13.15;2.97;;;;;;;5.04;90.61;99021.81;5035462;28;20090;-57
2022/11/22 04:45:42;;;;;;;10.80;3.13;;;;;;;5.08;91.14;99019.19;5030800;28;20040;-57
2022/11/22 04:48:07;;;;;;;6.93;3.05;;;;;;;5.12;91.52;99014.88;5027502;28;20386;-57
2022/11/22 04:53:17;;;;;;;7.55;2.20;;;;;;;5.13;91.37;99019.13;5051298;28;20052;-58
2022/11/22 04:55:45;;;;;;;5.53;1.70;;;;;;;5.12;91.58;99012.31;5052515;28;20041;-57
2022/11/22 04:58:11;;;;;;;9.57;2.33;;;;;;;5.09;91.70;99004.66;5039574;28;20455;-57
2022/11/22 05:00:36;;;;;;;5.90;2.13;;;;;;;5.09;91.77;99009.78;5036426;28;20136;-57
2022/11/22 05:03:03;;;;;;;7.50;2.60;;;;;;;5.09;92.15;99009.78;5055623;28;20540;-57
2022/11/22 05:05:28;;;;;;;5.93;2.10;;;;;;;5.08;91.39;99013.19;5052430;28;20917;-57
2022/11/22 05:07:55;;;;;;;8.95;1.95;;;;;;;5.07;91.89;99014.91;5057298;28;20128;-57
2022/11/22 05:10:21;;;;;;;10.38;2.85;;;;;;;5.07;91.80;99009.78;5051841;28;20052;-57
2022/11/22 05:12:46;;;;;;;8.52;2.20;;;;;;;5.10;91.59;99004.63;5057369;28;20060;-57
2022/11/22 05:15:12;;;;;;;8.70;2.53;;;;;;;5.11;91.97;99002.91;5056599;28;20127;-57
2022/11/22 05:17:38;;;;;;;8.30;2.20;;;;;;;5.10;92.30;99008.94;5056452;28;20155;-58
2022/11/22 05:20:05;;;;;;;11.88;3.35;;;;;;;5.08;91.94;99010.66;5057960;28;20041;-58
2022/11/22 05:25:14;;;;;;;7.93;2.15;;;;;;;5.05;92.21;99024.34;5052219;28;20693;-57
2022/11/22 05:27:39;;;;;;;11.20;2.03;;;;;;;5.04;91.44;99025.19;5062366;28;20028;-58
2022/11/22 05:30:05;;;;;;;14.30;2.40;;;;;;;5.03;92.00;99030.34;5058281;28;20040;-57
2022/11/22 05:32:31;;;;;;;12.35;3.10;;;;;;;5.02;92.28;99034.63;5056949;28;21045;-57
2022/11/22 05:34:57;;;;;;;12.90;2.97;;;;;;;5.02;91.95;99047.44;5059754;28;20040;-57
2022/11/22 05:37:25;;;;;;;9.25;2.40;;;;;;;5.00;91.60;99049.19;5038328;28;20037;-58
2022/11/22 05:39:50;;;;;;;6.78;2.38;;;;;;;4.99;91.18;99059.41;5041077;28;20044;-57
2022/11/22 05:42:16;;;;;;;12.98;3.05;;;;;;;5.01;91.27;99068.78;5059358;28;20040;-57
2022/11/22 05:44:42;;;;;;;12.88;2.72;;;;;;;5.11;91.63;99069.50;5053681;28;20040;-57
2022/11/22 05:47:08;;;;;;;15.38;2.95;;;;;;;5.27;91.52;99067.56;5056682;28;20120;-57
2022/11/22 05:49:33;;;;;;;13.07;2.53;;;;;;;5.43;91.73;99069.88;5058596;28;20040;-57
2022/11/22 05:51:59;;;;;;;15.38;2.40;;;;;;;5.47;90.28;99060.44;5056629;28;20040;-57
2022/11/22 05:54:24;;;;;;;11.95;2.63;;;;;;;5.47;90.69;99066.41;5061064;28;20062;-58
2022/11/22 05:56:50;;;;;;;7.80;2.33;;;;;;;5.44;89.87;99068.16;5062036;28;20041;-57
2022/11/22 05:59:15;;;;;;;8.15;2.33;;;;;;;5.39;89.68;99070.81;5054449;28;20102;-58
2022/11/22 06:01:41;;;;;;;8.02;2.45;;;;;;;5.33;89.32;99070.06;5058325;28;20044;-58
2022/11/22 06:04:06;;;;;;;12.15;2.75;;;;;;;5.27;89.69;99059.91;5071536;28;20496;-58
2022/11/22 06:06:32;;;;;;;14.05;2.47;;;;;;;5.20;89.93;99054.84;5060633;28;20029;-58
2022/11/22 06:08:58;;;;;;;13.27;2.47;;;;;;;5.15;89.14;99055.78;5058492;28;20036;-58
2022/11/22 06:11:26;;;;;;;10.60;2.13;;;;;;;5.10;89.71;99062.69;5058079;28;20078;-58
2022/11/22 06:13:56;;;;;;;11.30;2.83;;;;;;;5.05;89.85;99067.03;5062416;28;20039;-58
2022/11/22 06:16:23;;;;;;;8.98;1.85;;;;;;;5.01;89.33;99073.06;5056278;28;20560;-58
2022/11/22 06:18:49;;;;;;;10.18;2.55;;;;;;;4.97;89.72;99079.94;5055830;28;20046;-58
2022/11/22 06:21:17;;;;;;;9.07;1.98;;;;;;;4.94;89.76;99081.69;5055266;28;20037;-58
2022/11/22 06:23:42;;;;;;;8.52;2.50;;;;;;;4.88;90.07;99082.63;5059504;28;20162;-58
2022/11/22 06:26:14;;;;;;;10.90;3.20;;;;;;;4.86;89.57;99086.06;5053300;28;20032;-58
2022/11/22 06:28:40;;;;;;;9.65;3.30;;;;;;;4.83;89.86;99080.97;5058011;28;20061;-58
2022/11/22 06:31:08;;;;;;;11.43;2.60;;;;;;;4.81;90.11;99080.13;5054263;28;20825;-58
2022/11/22 06:33:34;;;;;;;7.93;2.33;;;;;;;4.79;89.81;99087.84;5059339;28;20048;-58
2022/11/22 06:36:04;;;;;;;8.27;2.58;;;;;;;4.78;90.29;99085.28;5058937;28;20576;-59
2022/11/22 06:38:29;;;;;;;11.27;2.53;;;;;;;4.76;90.25;99094.69;5047415;28;20028;-58
2022/11/22 06:41:07;;;;;;;12.55;3.47;;;;;;;4.73;89.97;99093.03;5054854;28;20114;-58
2022/11/22 06:43:33;;;;;;;17.95;3.45;;;;;;;4.71;90.46;99104.16;5058622;28;20040;-58
2022/11/22 06:46:01;;;;;;;14.05;2.78;;;;;;;4.68;89.60;99100.75;5054515;28;20461;-58
2022/11/22 06:48:29;;;;;;;10.80;3.25;;;;;;;4.75;90.07;99110.91;5053338;28;20032;-58
2022/11/22 06:51:02;;;;;;;19.02;3.90;;;;;;;4.84;89.15;99118.50;5058591;28;20032;-58
2022/11/22 06:53:28;;;;;;;12.13;2.60;;;;;;;4.89;89.15;99114.19;5058074;28;20036;-58
2022/11/22 06:56:05;;;;;;;16.42;3.22;;;;;;;5.01;88.58;99117.41;5058357;28;20056;-58
2022/11/22 06:58:35;;;;;;;14.13;2.22;;;;;;;5.08;88.42;99121.59;5055702;28;20032;-58
2022/11/22 07:01:00;;;;;;;12.30;2.60;;;;;;;5.23;87.17;99120.56;5054591;28;20144;-58
2022/11/22 07:03:26;;;;;;;13.75;3.67;;;;;;;5.33;87.47;99105.91;5055531;28;20048;-58
2022/11/22 07:05:51;;;;;;;8.23;3.60;;;;;;;5.42;86.39;99101.53;5052282;28;20040;-61
2022/11/22 07:08:17;;;;;;;12.43;2.17;;;;;;;5.48;86.35;99111.69;5050375;28;20029;-58
2022/11/22 07:10:42;;;;;;;12.23;2.60;;;;;;;5.55;86.33;99115.81;5056739;28;20450;-58
2022/11/22 07:13:10;;;;;;;12.10;3.17;;;;;;;5.58;85.66;99120.06;5054834;28;20103;-58
2022/11/22 07:15:35;;;;;;;16.00;3.17;;;;;;;5.62;85.31;99114.03;5050574;28;20131;-58
2022/11/22 07:18:01;;;;;;;9.82;2.35;;;;;;;5.68;85.20;99114.78;5050621;28;20043;-58
2022/11/22 07:20:26;;;;;;;12.40;2.60;;;;;;;5.74;84.38;99124.09;5057522;28;20032;-58
2022/11/22 07:22:52;;;;;;;13.25;2.90;;;;;;;5.78;84.46;99128.31;5051872;28;20119;-58
2022/11/22 07:25:17;;;;;;;12.18;2.63;;;;;;;5.77;84.54;99121.50;5053406;28;21802;-59
2022/11/22 07:27:42;;;;;;;10.13;3.15;;;;;;;5.82;83.39;99127.38;5055772;28;20528;-58
2022/11/22 07:30:08;;;;;;;11.80;2.55;;;;;;;5.88;83.18;99122.16;5049433;28;20098;-58
2022/11/22 07:32:34;;;;;;;16.02;2.70;;;;;;;5.97;82.22;99116.03;5052752;28;20037;-58
2022/11/22 07:34:59;;;;;;;9.30;2.58;;;;;;;6.02;82.18;99107.38;5047869;28;20045;-58
2022/11/22 07:37:25;;;;;;;11.18;2.42;;;;;;;6.10;81.25;99104.72;5057523;28;20051;-58
2022/11/22 07:39:50;;;;;;;8.88;1.55;;;;;;;6.23;80.38;99099.34;5054301;28;20195;-58
2022/11/22 07:42:15;;;;;;;8.15;2.28;;;;;;;6.27;80.19;99108.69;5052464;28;20084;-58
2022/11/22 07:44:41;;;;;;;8.30;1.85;;;;;;;6.35;79.12;99108.53;5056103;28;20750;-59
2022/11/22 07:47:06;;;;;;;8.07;1.52;;;;;;;6.40;79.00;99106.75;5054855;28;20037;-59
2022/11/22 07:49:31;;;;;;;7.25;2.08;;;;;;;6.43;78.98;99104.13;5050448;28;20037;-59
2022/11/22 07:51:58;;;;;;;9.55;2.55;;;;;;;6.49;77.88;99113.44;5055795;28;20048;-58
2022/11/22 07:54:24;;;;;;;9.00;2.00;;;;;;;6.55;77.33;99115.88;5050346;28;20498;-58
2022/11/22 07:56:49;;;;;;;6.78;1.60;;;;;;;6.54;77.48;99115.03;5053735;28;20043;-58
2022/11/22 07:59:14;;;;;;;9.98;1.85;;;;;;;6.56;77.19;99112.41;5059953;28;20092;-58
2022/11/22 08:01:40;;;;;;;7.35;1.70;;;;;;;6.57;76.76;99116.69;5060343;28;20044;-58
2022/11/22 08:04:05;;;;;;;9.15;2.70;;;;;;;6.62;76.32;99125.16;5053443;28;20041;-58
2022/11/22 08:06:31;;;;;;;3.65;1.15;;;;;;;6.62;76.52;99135.41;5053843;28;20056;-59
2022/11/22 08:08:56;;;;;;;7.90;1.55;;;;;;;6.61;76.09;99141.44;5050295;28;20025;-58
2022/11/22 08:11:21;;;;;;;6.43;1.42;;;;;;;6.59;76.06;99141.44;5050596;28;20035;-58
2022/11/22 08:13:47;;;;;;;5.70;1.92;;;;;;;6.55;76.19;99141.56;5051350;28;20044;-58
2022/11/22 08:16:15;;;;;;;7.95;1.42;;;;;;;6.55;75.74;99152.66;5051912;28;20037;-58
2022/11/22 08:18:44;;;;;;;10.90;1.60;;;;;;;6.57;75.75;99150.06;5057506;28;20110;-58
2022/11/22 08:21:11;;;;;;;7.85;1.70;;;;;;;6.61;76.13;99162.84;5051379;28;20770;-58
2022/11/22 08:23:38;;;;;;;5.88;1.20;;;;;;;6.68;75.55;99159.25;5048498;28;20133;-58
2022/11/22 08:26:05;;;;;;;10.32;1.85;;;;;;;6.71;75.46;99158.34;5053021;28;20032;-58
2022/11/22 08:28:30;;;;;;;10.32;1.55;;;;;;;6.73;75.39;99161.75;5049316;28;20140;-58
2022/11/22 08:31:07;;;;;;;8.25;1.80;;;;;;;6.81;75.80;99165.03;5051649;28;20032;-58
2022/11/22 08:33:33;;;;;;;8.55;2.03;;;;;;;6.93;75.20;99162.22;5051430;28;20028;-58
2022/11/22 08:35:58;;;;;;;18.73;3.10;;;;;;;7.07;75.21;99170.50;5050793;28;20713;-59
2022/11/22 08:38:24;;;;;;;15.93;2.38;;;;;;;7.21;74.46;99167.69;5057886;28;20382;-58
2022/11/22 08:40:50;;;;;;;11.07;2.10;;;;;;;7.40;73.86;99177.56;5060192;28;20041;-59
2022/11/22 08:43:16;;;;;;;11.10;1.77;;;;;;;7.62;72.13;99172.81;5055907;28;20040;-59
2022/11/22 08:45:41;;;;;;;8.80;2.35;;;;;;;7.82;71.59;99168.06;5058292;28;20040;-58
2022/11/22 08:48:06;;;;;;;10.98;1.95;;;;;;;7.99;70.93;99168.50;5053514;28;20055;-58
2022/11/22 08:50:32;;;;;;;7.93;1.73;;;;;;;8.15;69.92;99160.44;5056411;28;20545;-58
2022/11/22 08:53:00;;;;;;;10.85;2.38;;;;;;;8.29;69.30;99159.22;5051175;28;20040;-58
2022/11/22 08:55:25;;;;;;;10.00;2.83;;;;;;;8.38;68.38;99151.25;5055238;28;20393;-58
2022/11/22 08:57:51;;;;;;;12.07;1.90;;;;;;;8.40;69.02;99149.47;5055662;28;20048;-58
2022/11/22 09:00:16;;;;;;;4.95;2.22;;;;;;;8.41;68.20;99145.19;5055380;28;20040;-58
2022/11/22 09:02:42;;;;;;;8.80;1.73;;;;;;;8.32;68.71;99153.97;5046898;28;20032;-58
2022/11/22 09:05:08;;;;;;;5.28;1.58;;;;;;;8.23;69.81;99156.78;5057311;28;20040;-58
2022/11/22 09:07:33;;;;;;;12.43;2.15;;;;;;;8.17;69.60;99169.81;5049689;28;21430;-58
2022/11/22 09:09:59;;;;;;;10.07;2.40;;;;;;;8.10;69.13;99162.28;5042540;28;20037;-58
2022/11/22 09:12:24;;;;;;;9.55;1.63;;;;;;;8.05;70.69;99164.09;5038080;28;20570;-58
2022/11/22 09:14:50;;;;;;;10.25;2.22;;;;;;;8.05;71.31;99172.66;5054387;28;20042;-58
2022/11/22 09:17:15;;;;;;;6.18;1.75;;;;;;;8.11;70.35;99171.66;5038477;28;20045;-59
2022/11/22 09:19:40;;;;;;;6.80;2.40;;;;;;;8.13;70.45;99178.47;5028431;28;20417;-60
2022/11/22 09:22:06;;;;;;;12.75;1.88;;;;;;;8.15;69.19;99174.16;5033590;28;20042;-60
2022/11/22 09:24:31;;;;;;;9.02;2.00;;;;;;;8.16;68.91;99175.00;5029486;28;20150;-59
2022/11/22 09:26:56;;;;;;;8.43;2.10;;;;;;;8.18;70.24;99175.78;5029962;28;20029;-60
2022/11/22 09:29:22;;;;;;;8.95;1.90;;;;;;;8.17;69.11;99174.94;5030995;28;20536;-60
2022/11/22 09:31:48;;;;;;;8.05;1.65;;;;;;;8.12;69.73;99170.78;5032804;28;20044;-60
2022/11/22 09:34:13;;;;;;;11.23;1.83;;;;;;;8.09;69.37;99176.00;5037849;28;20030;-59
2022/11/22 09:36:39;;;;;;;9.25;1.75;;;;;;;8.13;70.15;99175.06;5026063;28;20533;-60
2022/11/22 09:39:04;;;;;;;7.93;2.50;;;;;;;8.18;70.49;99179.22;5035717;28;20577;-60
2022/11/22 09:41:38;;;;;;;7.75;1.63;;;;;;;8.31;69.26;99180.59;5029579;28;20033;-60
2022/11/22 09:44:28;;;;;;;10.88;2.03;;;;;;;8.45;68.69;99178.56;5026266;28;20402;-60
2022/11/22 09:47:30;;;;;;;6.90;1.58;;;;;;;8.57;68.26;99185.13;5035913;28;20035;-60
2022/11/22 09:50:36;;;;;;;8.98;1.77;;;;;;;8.68;68.30;99183.09;5045796;28;20495;-60
2022/11/22 09:53:11;;;;;;;6.13;1.52;;;;;;;8.82;67.91;99186.16;5046549;28;20094;-60
2022/11/22 09:55:44;;;;;;;7.77;1.70;;;;;;;8.87;67.65;99186.88;5053689;28;20037;-60
2022/11/22 09:58:32;;;;;;;6.55;1.75;;;;;;;8.93;66.86;99181.56;5049148;28;20322;-60
2022/11/22 10:01:12;;;;;;;10.25;1.83;;;;;;;9.00;66.95;99177.94;5030788;28;20662;-60
2022/11/22 10:03:46;;;;;;;6.82;1.15;;;;;;;9.06;67.15;99170.03;5039186;28;20123;-60
2022/11/22 10:06:30;;;;;;;5.22;1.25;;;;;;;9.08;66.85;99170.81;5056090;28;20629;-60
2022/11/22 10:08:59;;;;;;;6.18;2.20;;;;;;;9.14;66.70;99164.66;5034597;28;20491;-59
2022/11/22 10:11:33;;;;;;;6.10;1.75;;;;;;;9.22;66.54;99159.28;5036336;28;20032;-60
2022/11/22 10:14:03;;;;;;;6.90;1.90;;;;;;;9.29;65.71;99161.63;5039481;28;20032;-60
2022/11/22 10:16:34;;;;;;;6.00;1.25;;;;;;;9.33;66.04;99158.09;5051499;28;20132;-60
2022/11/22 10:19:09;;;;;;;5.68;1.52;;;;;;;9.40;66.49;99163.94;5056367;28;20044;-60
2022/11/22 10:21:34;;;;;;;5.53;1.40;;;;;;;9.49;65.43;99148.19;5050178;28;20059;-60
2022/11/22 10:23:59;;;;;;;5.53;2.47;;;;;;;9.62;65.21;99141.78;5032255;28;20480;-62
2022/11/22 10:26:31;;;;;;;5.53;1.40;;;;;;;9.75;65.67;99137.09;5040894;28;20029;-62
2022/11/22 10:28:59;;;;;;;5.22;1.40;;;;;;;9.87;64.91;99136.72;5035604;28;20075;-62
2022/11/22 10:31:40;;;;;;;5.65;1.25;;;;;;;9.92;65.28;99122.78;5031641;28;20047;-62
2022/11/22 10:34:17;;;;;;;6.03;1.52;;;;;;;9.89;64.79;99117.72;5046011;28;20078;-62
2022/11/22 10:36:54;;;;;;;2.38;1.50;;;;;;;9.89;65.47;99120.28;5045706;28;20048;-63
2022/11/22 10:39:56;;;;;;;7.30;2.58;;;;;;;9.92;65.55;99124.50;5048422;28;20029;-63
2022/11/22 10:42:47;;;;;;;8.70;2.05;;;;;;;10.05;65.22;99123.22;5036013;28;20029;-63
2022/11/22 10:45:21;;;;;;;5.47;2.00;;;;;;;10.18;64.59;99127.94;5040352;28;21055;-63
2022/11/22 10:48:01;;;;;;;7.00;1.65;;;;;;;10.36;63.82;99126.47;5055631;28;21797;-62
2022/11/22 10:50:50;;;;;;;5.53;1.65;;;;;;;10.43;63.09;99124.53;5055933;28;20052;-64
2022/11/22 10:53:21;;;;;;;6.53;2.30;;;;;;;10.44;63.21;99121.91;5058462;28;20075;-62
2022/11/22 10:56:03;;;;;;;7.85;1.60;;;;;;;10.46;64.25;99114.09;5055136;28;20052;-62
2022/11/22 10:58:55;;;;;;;4.03;0.93;;;;;;;10.57;63.01;99117.16;5048265;28;20041;-62
2022/11/22 11:01:32;;;;;;;5.88;2.45;;;;;;;10.55;64.09;99112.06;5055522;28;20071;-62
2022/11/22 11:04:00;;;;;;;4.32;1.20;;;;;;;10.65;62.86;99107.41;5053064;28;20520;-62
2022/11/22 11:06:39;;;;;;;5.75;1.20;;;;;;;10.74;62.41;99104.50;5055894;28;20028;-62
2022/11/22 11:09:21;;;;;;;3.28;1.35;;;;;;;10.89;61.49;99100.53;5046406;28;20024;-62
2022/11/22 11:11:49;;;;;;;4.93;1.25;;;;;;;11.03;61.32;99093.09;5058163;28;20020;-62
2022/11/22 11:14:33;;;;;;;3.92;1.00;;;;;;;11.12;60.94;99098.78;5051818;28;20155;-62
2022/11/22 11:16:59;;;;;;;3.58;1.23;;;;;;;11.21;61.64;99098.44;5051826;28;20087;-62
2022/11/22 11:19:31;;;;;;;2.42;0.80;;;;;;;11.11;60.15;99085.91;5057682;28;20037;-62
2022/11/22 11:22:11;;;;;;;4.47;1.08;;;;;;;10.83;60.49;99082.66;5055889;28;20037;-62
2022/11/22 11:24:39;;;;;;;3.40;0.95;;;;;;;10.69;60.51;99083.13;5054190;28;20033;-62
2022/11/22 11:27:06;;;;;;;3.00;1.20;;;;;;;10.49;61.67;99094.19;5060115;28;20101;-61
2022/11/22 11:29:50;;;;;;;5.07;1.40;;;;;;;10.40;61.58;99085.91;5046680;28;20494;-62
2022/11/22 11:32:21;;;;;;;4.72;0.95;;;;;;;10.33;61.87;99082.69;5053396;28;20712;-62
2022/11/22 11:35:07;;;;;;;2.45;1.08;;;;;;;10.22;62.08;99085.63;5058009;28;20712;-62
2022/11/22 11:37:35;;;;;;;4.88;0.90;;;;;;;10.15;63.50;99089.31;5058957;28;20044;-62
2022/11/22 11:40:04;;;;;;;2.15;0.82;;;;;;;10.06;63.54;99089.59;5054851;28;20608;-62
2022/11/22 11:42:34;;;;;;;5.43;1.08;;;;;;;10.08;62.83;99092.16;5050550;28;20919;-62
2022/11/22 11:45:17;;;;;;;1.80;0.93;;;;;;;10.08;62.19;99085.25;5051899;28;20028;-62
2022/11/22 11:47:43;;;;;;;4.63;1.20;;;;;;;10.04;62.50;99086.25;5052247;28;20020;-63
2022/11/22 11:50:23;;;;;;;4.90;1.27;;;;;;;10.07;63.46;99086.16;5052105;28;20032;-62
2022/11/22 11:53:14;;;;;;;4.50;1.00;;;;;;;10.22;63.07;99083.06;5054139;28;20090;-62
2022/11/22 11:55:39;;;;;;;3.67;1.27;;;;;;;10.29;64.00;99070.78;5047602;28;20610;-62
2022/11/22 11:58:22;;;;;;;5.13;1.25;;;;;;;10.29;62.87;99082.84;5054175;28;20044;-62